createdAt,value
2023-05-18T00:00:35.612Z,2.80
2023-05-18T00:03:03.857Z,2.70
2023-05-18T00:05:34.586Z,2.70
2023-05-18T00:08:01.741Z,2.70
2023-05-18T00:10:28.919Z,2.70
2023-05-18T00:12:56.298Z,2.70
2023-05-18T00:15:23.131Z,2.70
2023-05-18T00:17:50.663Z,2.80
2023-05-18T00:20:18.678Z,2.90
2023-05-18T00:22:48.210Z,2.90
2023-05-18T00:25:15.092Z,2.90
2023-05-18T00:27:41.961Z,3.00
2023-05-18T00:30:09.570Z,3.00
2023-05-18T00:32:36.597Z,3.00
2023-05-18T00:35:03.955Z,3.10
2023-05-18T00:37:30.899Z,3.10
2023-05-18T00:39:57.857Z,3.10
2023-05-18T00:42:24.737Z,3.10
2023-05-18T00:44:51.557Z,3.20
2023-05-18T00:47:20.973Z,3.10
2023-05-18T00:49:48.001Z,3.10
2023-05-18T00:52:16.033Z,3.00
2023-05-18T00:54:43.591Z,3.00
2023-05-18T00:57:10.612Z,2.90
2023-05-18T00:59:37.595Z,2.90
2023-05-18T01:02:05.583Z,3.00
2023-05-18T01:04:32.487Z,2.90
2023-05-18T01:07:06.817Z,2.90
2023-05-18T01:09:34.776Z,2.90
2023-05-18T01:12:11.834Z,2.90
2023-05-18T01:15:13.726Z,3.00
2023-05-18T01:17:52.903Z,3.00
2023-05-18T01:20:38.109Z,3.10
2023-05-18T01:23:17.747Z,3.20
2023-05-18T01:25:53.676Z,3.20
2023-05-18T01:28:26.542Z,3.20
2023-05-18T01:30:54.484Z,3.20
2023-05-18T01:33:21.381Z,3.10
2023-05-18T01:35:48.761Z,3.10
2023-05-18T01:38:19.235Z,3.00
2023-05-18T01:41:06.061Z,2.90
2023-05-18T01:43:38.123Z,2.80
2023-05-18T01:46:17.965Z,2.80
2023-05-18T01:48:51.661Z,2.70
2023-05-18T01:51:21.452Z,2.70
2023-05-18T01:54:11.162Z,2.70
2023-05-18T01:56:40.485Z,2.70
2023-05-18T01:59:07.754Z,2.60
2023-05-18T02:01:34.745Z,2.60
2023-05-18T02:04:01.994Z,2.60
2023-05-18T02:06:30.522Z,2.60
2023-05-18T02:08:57.503Z,2.50
2023-05-18T02:11:24.347Z,2.50
2023-05-18T02:13:51.395Z,2.60
2023-05-18T02:16:19.960Z,2.60
2023-05-18T02:18:46.991Z,2.60
2023-05-18T02:21:14.562Z,2.60
2023-05-18T02:23:41.872Z,2.60
2023-05-18T02:26:08.757Z,2.60
2023-05-18T02:28:35.964Z,2.80
2023-05-18T02:31:07.017Z,2.80
2023-05-18T02:33:40.201Z,2.70
2023-05-18T02:36:08.404Z,2.80
2023-05-18T02:38:40.088Z,2.80
2023-05-18T02:41:07.281Z,2.80
2023-05-18T02:43:34.654Z,2.80
2023-05-18T02:46:02.053Z,2.80
2023-05-18T02:48:29.308Z,2.80
2023-05-18T02:50:57.339Z,2.80
2023-05-18T02:53:24.258Z,2.80
2023-05-18T02:56:03.290Z,2.80
2023-05-18T02:58:39.993Z,2.70
2023-05-18T03:01:12.364Z,2.70
2023-05-18T03:03:47.328Z,2.70
2023-05-18T03:06:16.080Z,2.70
2023-05-18T03:08:43.949Z,2.70
2023-05-18T03:11:12.590Z,2.60
2023-05-18T03:13:39.454Z,2.50
2023-05-18T03:16:06.575Z,2.40
2023-05-18T03:18:33.463Z,2.40
2023-05-18T03:21:02.138Z,2.40
2023-05-18T03:23:30.301Z,2.40
2023-05-18T03:25:57.767Z,2.40
2023-05-18T03:28:30.072Z,2.30
2023-05-18T03:30:58.096Z,2.30
2023-05-18T03:33:27.034Z,2.30
2023-05-18T03:35:54.683Z,2.30
2023-05-18T03:38:21.747Z,2.20
2023-05-18T03:40:56.315Z,2.20
2023-05-18T03:43:25.899Z,2.10
2023-05-18T03:45:53.799Z,2.20
2023-05-18T03:48:22.983Z,2.20
2023-05-18T03:50:54.084Z,2.30
2023-05-18T03:53:21.468Z,2.20
2023-05-18T03:55:52.313Z,2.30
2023-05-18T03:58:22.569Z,2.30
2023-05-18T04:00:49.786Z,2.40
2023-05-18T04:03:17.118Z,2.50
2023-05-18T04:05:44.875Z,2.60
2023-05-18T04:08:14.520Z,2.70
2023-05-18T04:10:43.240Z,2.80
2023-05-18T04:13:10.212Z,2.80
2023-05-18T04:15:37.237Z,2.90
2023-05-18T04:18:04.586Z,2.90
2023-05-18T04:20:31.502Z,3.00
2023-05-18T04:22:58.447Z,3.10
2023-05-18T04:25:28.843Z,3.10
2023-05-18T04:27:56.817Z,3.20
2023-05-18T04:30:27.178Z,3.30
2023-05-18T04:32:54.686Z,3.40
2023-05-18T04:35:21.906Z,3.50
2023-05-18T04:37:48.864Z,3.60
2023-05-18T04:40:17.971Z,3.70
2023-05-18T04:42:47.943Z,3.80
2023-05-18T04:45:20.448Z,3.80
2023-05-18T04:47:54.503Z,4.00
2023-05-18T04:50:26.367Z,4.00
2023-05-18T04:52:54.130Z,4.10
2023-05-18T04:55:26.164Z,4.10
2023-05-18T04:58:03.148Z,4.20
2023-05-18T05:00:30.895Z,4.40
2023-05-18T05:02:58.912Z,4.50
2023-05-18T05:05:28.097Z,5.00
2023-05-18T05:07:56.096Z,6.00
2023-05-18T05:10:23.195Z,7.40
2023-05-18T05:12:50.589Z,8.60
2023-05-18T05:15:18.465Z,9.30
2023-05-18T05:17:47.465Z,10.00
2023-05-18T05:20:16.763Z,10.80
2023-05-18T05:22:43.788Z,11.20
2023-05-18T05:25:12.859Z,10.60
2023-05-18T05:27:40.313Z,10.70
2023-05-18T05:30:08.043Z,11.20
2023-05-18T05:32:36.901Z,10.90
2023-05-18T05:35:06.093Z,11.70
2023-05-18T05:37:33.365Z,12.00
2023-05-18T05:40:06.386Z,12.30
2023-05-18T05:42:37.775Z,12.20
2023-05-18T05:45:06.035Z,12.30
2023-05-18T05:47:38.275Z,12.60
2023-05-18T05:50:06.559Z,13.00
2023-05-18T05:52:34.515Z,12.30
2023-05-18T05:55:02.138Z,12.30
2023-05-18T05:57:30.362Z,12.00
2023-05-18T05:59:57.240Z,12.10
2023-05-18T06:02:25.844Z,12.30
2023-05-18T06:04:54.106Z,12.30
2023-05-18T06:07:21.079Z,11.80
2023-05-18T06:09:48.736Z,11.70
2023-05-18T06:12:15.754Z,11.50
2023-05-18T06:14:42.710Z,12.10
2023-05-18T06:17:09.794Z,12.80
2023-05-18T06:19:36.954Z,13.10
2023-05-18T06:22:04.293Z,12.40
2023-05-18T06:24:39.070Z,12.10
2023-05-18T06:27:28.815Z,12.50
2023-05-18T06:30:13.358Z,12.50
2023-05-18T06:32:57.073Z,12.30
2023-05-18T06:35:24.951Z,12.70
2023-05-18T06:37:51.924Z,13.30
2023-05-18T06:40:18.840Z,13.40
2023-05-18T06:42:46.278Z,13.70
2023-05-18T06:45:26.162Z,13.50
2023-05-18T06:47:56.478Z,13.20
2023-05-18T06:50:23.590Z,12.50
2023-05-18T06:52:51.558Z,12.70
2023-05-18T06:55:18.868Z,13.40
2023-05-18T06:57:45.783Z,13.10
2023-05-18T07:00:13.041Z,12.60
2023-05-18T07:02:40.873Z,12.90
2023-05-18T07:05:09.368Z,13.30
2023-05-18T07:07:37.841Z,13.50
2023-05-18T07:10:05.354Z,13.30
2023-05-18T07:12:32.265Z,13.30
2023-05-18T07:14:59.162Z,13.60
2023-05-18T07:17:26.261Z,13.70
2023-05-18T07:19:53.177Z,13.80
2023-05-18T07:22:20.048Z,13.40
2023-05-18T07:24:46.960Z,13.50
2023-05-18T07:27:13.949Z,13.60
2023-05-18T07:29:40.803Z,13.80
2023-05-18T07:32:07.804Z,14.60
2023-05-18T07:34:34.725Z,15.60
2023-05-18T07:37:01.707Z,15.60
2023-05-18T07:39:29.498Z,16.00
2023-05-18T07:41:56.996Z,16.20
2023-05-18T07:44:24.474Z,15.80
2023-05-18T07:46:51.661Z,16.00
2023-05-18T07:49:18.659Z,15.80
2023-05-18T07:51:45.615Z,16.10
2023-05-18T07:54:13.070Z,16.50
2023-05-18T07:56:43.175Z,16.40
2023-05-18T07:59:10.908Z,16.10
2023-05-18T08:01:38.474Z,15.70
2023-05-18T08:04:05.535Z,15.90
2023-05-18T08:06:32.646Z,16.00
2023-05-18T08:08:59.479Z,15.90
2023-05-18T08:11:26.326Z,16.60
2023-05-18T08:13:53.160Z,16.80
2023-05-18T08:16:20.050Z,16.70
2023-05-18T08:18:46.977Z,16.80
2023-05-18T08:21:13.875Z,17.10
2023-05-18T08:23:40.833Z,17.20
2023-05-18T08:26:09.770Z,17.10
2023-05-18T08:28:37.367Z,17.10
2023-05-18T08:31:04.339Z,16.80
2023-05-18T08:33:32.504Z,17.10
2023-05-18T08:35:59.493Z,17.30
2023-05-18T08:38:26.541Z,16.20
2023-05-18T08:41:16.399Z,16.40
2023-05-18T08:43:47.432Z,16.10
2023-05-18T08:46:24.582Z,16.50
2023-05-18T08:48:53.658Z,16.80
2023-05-18T08:51:22.178Z,17.60
2023-05-18T08:53:54.163Z,17.30
2023-05-18T08:56:25.254Z,17.40
2023-05-18T08:58:56.430Z,16.90
2023-05-18T09:01:30.084Z,17.10
2023-05-18T09:03:58.213Z,17.20
2023-05-18T09:06:25.554Z,16.70
2023-05-18T09:08:54.255Z,16.90
2023-05-18T09:11:23.337Z,17.00
2023-05-18T09:13:53.053Z,17.50
2023-05-18T09:16:19.950Z,17.40
2023-05-18T09:18:46.905Z,17.60
2023-05-18T09:21:13.939Z,17.60
2023-05-18T09:23:41.659Z,17.80
2023-05-18T09:26:10.158Z,18.40
2023-05-18T09:28:41.803Z,18.80
2023-05-18T09:31:12.684Z,19.30
2023-05-18T09:33:40.677Z,19.10
2023-05-18T09:36:09.301Z,19.20
2023-05-18T09:38:44.027Z,18.60
2023-05-18T09:41:12.670Z,18.50
2023-05-18T09:43:40.227Z,19.10
2023-05-18T09:46:08.561Z,18.70
2023-05-18T09:48:37.139Z,19.50
2023-05-18T09:51:07.384Z,19.10
2023-05-18T09:53:37.672Z,18.00
2023-05-18T09:56:12.058Z,17.30
2023-05-18T09:58:41.943Z,16.70
2023-05-18T10:01:08.904Z,16.10
2023-05-18T10:03:37.914Z,16.10
2023-05-18T10:06:07.214Z,16.30
2023-05-18T10:08:35.127Z,16.80
2023-05-18T10:11:02.263Z,17.00
2023-05-18T10:13:31.622Z,17.10
2023-05-18T10:16:00.746Z,16.80
2023-05-18T10:18:30.465Z,15.60
2023-05-18T10:21:00.556Z,15.80
2023-05-18T10:23:30.965Z,15.90
2023-05-18T10:25:58.671Z,15.80
2023-05-18T10:28:37.956Z,16.60
2023-05-18T10:31:06.685Z,16.80
2023-05-18T10:33:35.950Z,16.30
2023-05-18T10:36:06.463Z,15.80
2023-05-18T10:38:36.702Z,16.00
2023-05-18T10:41:05.657Z,16.80
2023-05-18T10:43:34.151Z,17.90
2023-05-18T10:46:04.853Z,18.30
2023-05-18T10:48:32.403Z,18.60
2023-05-18T10:50:59.341Z,18.40
2023-05-18T10:53:29.535Z,17.60
2023-05-18T10:55:57.070Z,17.30
2023-05-18T10:58:28.810Z,16.80
2023-05-18T11:01:01.329Z,16.50
2023-05-18T11:03:28.715Z,16.30
2023-05-18T11:06:11.734Z,16.40
2023-05-18T11:08:49.798Z,16.60
2023-05-18T11:11:19.273Z,17.10
2023-05-18T11:13:51.318Z,17.70
2023-05-18T11:16:19.461Z,17.60
2023-05-18T11:18:51.537Z,17.90
2023-05-18T11:21:21.190Z,17.50
2023-05-18T11:24:36.527Z,16.40
2023-05-18T11:27:15.212Z,17.20
2023-05-18T11:29:46.696Z,18.00
2023-05-18T11:32:31.054Z,17.80
2023-05-18T11:34:59.498Z,17.10
2023-05-18T11:37:46.623Z,16.80
2023-05-18T11:40:33.967Z,16.90
2023-05-18T11:43:01.074Z,17.00
2023-05-18T11:45:28.054Z,17.20
2023-05-18T11:48:01.754Z,16.90
2023-05-18T11:50:31.056Z,16.40
2023-05-18T11:52:59.626Z,15.90
2023-05-18T11:55:38.298Z,15.60
2023-05-18T11:58:08.964Z,15.50
2023-05-18T12:00:37.508Z,15.30
2023-05-18T12:03:04.988Z,15.30
2023-05-18T12:05:34.197Z,15.30
2023-05-18T12:08:02.430Z,15.10
2023-05-18T12:10:32.874Z,15.00
2023-05-18T12:13:01.720Z,14.90
2023-05-18T12:15:30.323Z,14.90
2023-05-18T12:17:59.172Z,15.30
2023-05-18T12:20:26.674Z,15.50
2023-05-18T12:22:55.455Z,15.40
2023-05-18T12:25:25.848Z,15.20
2023-05-18T12:27:54.482Z,15.00
2023-05-18T12:30:23.518Z,14.60
2023-05-18T12:32:55.452Z,14.80
2023-05-18T12:35:26.821Z,14.80
2023-05-18T12:37:55.974Z,14.90
2023-05-18T12:40:23.532Z,14.90
2023-05-18T12:42:54.965Z,14.50
2023-05-18T12:45:25.050Z,14.30
2023-05-18T12:47:54.516Z,14.20
2023-05-18T12:50:23.574Z,14.30
2023-05-18T12:52:51.094Z,14.20
2023-05-18T12:55:21.946Z,14.30
2023-05-18T12:58:02.545Z,14.60
2023-05-18T13:00:34.063Z,14.80
2023-05-18T13:03:35.231Z,15.10
2023-05-18T13:06:06.757Z,15.30
2023-05-18T13:08:34.883Z,15.30
2023-05-18T13:11:13.602Z,15.80
2023-05-18T13:13:58.486Z,15.50
2023-05-18T13:16:25.980Z,15.00
2023-05-18T13:19:02.175Z,15.20
2023-05-18T13:21:29.352Z,15.20
2023-05-18T13:23:56.571Z,15.30
2023-05-18T13:26:24.596Z,15.20
2023-05-18T13:28:54.389Z,14.90
2023-05-18T13:31:22.549Z,15.30
2023-05-18T13:33:50.526Z,15.00
2023-05-18T13:36:18.263Z,14.80
2023-05-18T13:38:45.228Z,14.80
2023-05-18T13:41:14.892Z,14.70
2023-05-18T13:43:42.765Z,14.70
2023-05-18T13:46:10.186Z,14.40
2023-05-18T13:48:37.162Z,14.10
2023-05-18T13:51:04.239Z,13.80
2023-05-18T13:53:31.650Z,13.90
2023-05-18T13:55:58.674Z,14.10
2023-05-18T13:58:25.661Z,13.90
2023-05-18T14:00:54.637Z,14.10
2023-05-18T14:03:22.083Z,14.20
2023-05-18T14:05:49.663Z,14.30
2023-05-18T14:08:16.596Z,14.00
2023-05-18T14:10:43.494Z,14.00
2023-05-18T14:13:10.443Z,14.20
2023-05-18T14:15:37.473Z,14.20
2023-05-18T14:18:04.643Z,14.10
2023-05-18T14:20:31.969Z,14.00
2023-05-18T14:23:00.179Z,14.00
2023-05-18T14:25:27.375Z,13.90
2023-05-18T14:27:54.203Z,14.00
2023-05-18T14:30:21.241Z,14.00
2023-05-18T14:32:48.241Z,13.80
2023-05-18T14:35:15.237Z,13.80
2023-05-18T14:37:42.288Z,14.00
2023-05-18T14:40:09.537Z,14.00
2023-05-18T14:42:37.219Z,14.10
2023-05-18T14:45:04.919Z,14.00
2023-05-18T14:47:31.869Z,14.40
2023-05-18T14:50:00.037Z,14.20
2023-05-18T14:52:26.884Z,14.50
2023-05-18T14:54:57.248Z,14.60
2023-05-18T14:57:26.683Z,14.60
2023-05-18T14:59:53.865Z,14.70
2023-05-18T15:02:20.850Z,14.70
2023-05-18T15:04:47.880Z,14.20
2023-05-18T15:07:14.836Z,14.10
2023-05-18T15:09:41.678Z,13.50
2023-05-18T15:12:08.832Z,13.60
2023-05-18T15:14:35.890Z,13.60
2023-05-18T15:17:02.781Z,13.50
2023-05-18T15:19:30.294Z,13.90
2023-05-18T15:21:57.233Z,13.70
2023-05-18T15:24:26.226Z,13.80
2023-05-18T15:26:53.153Z,14.00
2023-05-18T15:29:21.624Z,13.60
2023-05-18T15:31:51.074Z,13.60
2023-05-18T15:34:18.210Z,13.70
2023-05-18T15:36:45.168Z,13.80
2023-05-18T15:39:12.075Z,13.70
2023-05-18T15:41:39.204Z,13.50
2023-05-18T15:44:06.136Z,13.60
2023-05-18T15:46:35.568Z,13.90
2023-05-18T15:49:02.963Z,14.00
2023-05-18T15:51:30.256Z,13.80
2023-05-18T15:53:57.244Z,13.70
2023-05-18T15:56:24.383Z,13.60
2023-05-18T15:58:51.329Z,13.60
2023-05-18T16:01:18.478Z,13.70
2023-05-18T16:03:46.051Z,13.70
2023-05-18T16:06:13.257Z,13.70
2023-05-18T16:08:40.143Z,13.70
2023-05-18T16:11:09.037Z,13.30
2023-05-18T16:13:36.146Z,13.40
2023-05-18T16:16:03.598Z,13.40
2023-05-18T16:18:30.611Z,13.40
2023-05-18T16:20:57.557Z,13.30
2023-05-18T16:23:24.567Z,13.30
2023-05-18T16:25:51.442Z,13.40
2023-05-18T16:28:18.423Z,13.40
2023-05-18T16:30:45.462Z,13.50
2023-05-18T16:33:12.390Z,13.50
2023-05-18T16:35:39.528Z,13.10
2023-05-18T16:38:06.380Z,13.10
2023-05-18T16:40:33.894Z,13.00
2023-05-18T16:43:01.027Z,13.10
2023-05-18T16:45:28.087Z,12.90
2023-05-18T16:47:55.215Z,12.90
2023-05-18T16:50:22.462Z,13.00
2023-05-18T16:52:49.390Z,12.90
2023-05-18T16:55:18.368Z,12.90
2023-05-18T16:57:45.370Z,13.00
2023-05-18T17:00:13.152Z,13.10
2023-05-18T17:02:40.264Z,13.10
2023-05-18T17:05:08.636Z,13.20
2023-05-18T17:07:36.460Z,13.20
2023-05-18T17:10:06.969Z,13.20
2023-05-18T17:12:38.305Z,13.20
2023-05-18T17:15:05.781Z,13.20
2023-05-18T17:17:32.706Z,13.20
2023-05-18T17:19:59.623Z,13.20
2023-05-18T17:22:26.482Z,13.10
2023-05-18T17:24:53.409Z,13.10
2023-05-18T17:27:20.355Z,12.90
2023-05-18T17:29:47.267Z,12.90
2023-05-18T17:32:14.127Z,12.90
2023-05-18T17:34:41.285Z,12.90
2023-05-18T17:37:08.299Z,12.90
2023-05-18T17:39:35.327Z,12.90
2023-05-18T17:42:03.728Z,12.90
2023-05-18T17:44:30.786Z,12.90
2023-05-18T17:46:58.632Z,12.90
2023-05-18T17:49:25.718Z,12.90
2023-05-18T17:51:52.843Z,12.80
2023-05-18T17:54:19.713Z,12.80
2023-05-18T17:56:46.686Z,12.90
2023-05-18T17:59:13.657Z,12.80
2023-05-18T18:01:40.681Z,12.70
2023-05-18T18:04:07.802Z,12.60
2023-05-18T18:06:36.099Z,12.60
2023-05-18T18:09:04.879Z,12.60
2023-05-18T18:11:31.995Z,12.50
2023-05-18T18:13:59.898Z,12.40
2023-05-18T18:16:26.934Z,12.40
2023-05-18T18:18:53.925Z,12.40
2023-05-18T18:21:20.838Z,12.30
2023-05-18T18:23:47.691Z,12.20
2023-05-18T18:26:14.603Z,12.20
2023-05-18T18:28:41.675Z,12.00
2023-05-18T18:31:08.622Z,11.90
2023-05-18T18:33:35.685Z,11.80
2023-05-18T18:36:05.536Z,11.80
2023-05-18T18:38:33.946Z,11.70
2023-05-18T18:41:04.225Z,11.80
2023-05-18T18:43:31.618Z,11.80
2023-05-18T18:45:59.487Z,11.70
2023-05-18T18:48:26.880Z,11.70
2023-05-18T18:50:53.834Z,11.70
2023-05-18T18:53:21.024Z,11.70
2023-05-18T18:55:48.181Z,11.70
2023-05-18T18:58:15.384Z,11.70
2023-05-18T19:00:42.493Z,11.70
2023-05-18T19:03:14.532Z,11.60
2023-05-18T19:05:41.670Z,11.60
2023-05-18T19:08:08.521Z,11.60
2023-05-18T19:10:35.946Z,11.50
2023-05-18T19:13:05.960Z,11.60
2023-05-18T19:15:36.740Z,11.60
2023-05-18T19:18:04.151Z,11.50
2023-05-18T19:20:31.350Z,11.50
2023-05-18T19:22:58.267Z,11.60
2023-05-18T19:25:26.454Z,11.60
2023-05-18T19:27:54.227Z,11.60
2023-05-18T19:30:22.706Z,11.60
2023-05-18T19:32:53.726Z,11.50
2023-05-18T19:35:21.983Z,11.50
2023-05-18T19:37:48.860Z,11.50
2023-05-18T19:40:17.454Z,11.40
2023-05-18T19:42:44.330Z,11.40
2023-05-18T19:45:11.256Z,11.40
2023-05-18T19:47:38.342Z,11.40
2023-05-18T19:50:06.206Z,11.40
2023-05-18T19:52:33.778Z,11.30
2023-05-18T19:55:02.035Z,11.30
2023-05-18T19:57:29.233Z,11.30
2023-05-18T19:59:56.141Z,11.30
2023-05-18T20:02:23.031Z,11.30
2023-05-18T20:04:51.481Z,11.30
2023-05-18T20:07:18.380Z,11.20
2023-05-18T20:09:45.585Z,11.30
2023-05-18T20:12:12.526Z,11.20
2023-05-18T20:14:39.531Z,11.20
2023-05-18T20:17:07.270Z,11.30
2023-05-18T20:19:37.833Z,11.20
2023-05-18T20:22:05.750Z,11.10
2023-05-18T20:24:32.706Z,11.20
2023-05-18T20:26:59.745Z,11.20
2023-05-18T20:29:26.996Z,11.10
2023-05-18T20:31:54.761Z,11.10
2023-05-18T20:34:21.743Z,11.10
2023-05-18T20:36:48.586Z,11.10
2023-05-18T20:39:15.448Z,11.00
2023-05-18T20:41:42.307Z,11.00
2023-05-18T20:44:11.262Z,11.00
2023-05-18T20:46:42.434Z,11.00
2023-05-18T20:49:12.250Z,11.00
2023-05-18T20:51:39.351Z,10.90
2023-05-18T20:54:06.662Z,10.90
2023-05-18T20:56:36.021Z,11.00
2023-05-18T20:59:06.147Z,11.00
2023-05-18T21:01:38.955Z,11.00
2023-05-18T21:04:06.443Z,11.00
2023-05-18T21:06:34.387Z,10.90
2023-05-18T21:09:01.596Z,10.90
2023-05-18T21:11:28.456Z,11.00
2023-05-18T21:13:55.487Z,11.00
2023-05-18T21:16:22.787Z,11.00
2023-05-18T21:18:49.819Z,10.90
2023-05-18T21:21:16.680Z,10.80
2023-05-18T21:23:43.548Z,10.80
2023-05-18T21:26:10.417Z,10.80
2023-05-18T21:28:37.282Z,10.80
2023-05-18T21:31:04.333Z,10.80
2023-05-18T21:33:31.462Z,10.80
2023-05-18T21:35:59.484Z,10.70
2023-05-18T21:38:26.323Z,10.70
2023-05-18T21:40:55.001Z,10.70
2023-05-18T21:43:23.114Z,10.70
2023-05-18T21:45:50.181Z,10.80
2023-05-18T21:48:17.129Z,10.70
2023-05-18T21:50:44.304Z,10.70
2023-05-18T21:53:11.143Z,10.60
2023-05-18T21:55:38.179Z,10.70
2023-05-18T21:58:05.209Z,10.70
2023-05-18T22:00:32.304Z,10.80
2023-05-18T22:02:59.642Z,10.80
2023-05-18T22:05:26.631Z,10.80
2023-05-18T22:07:53.506Z,10.80
2023-05-18T22:10:20.532Z,10.80
2023-05-18T22:12:47.441Z,10.70
2023-05-18T22:15:14.274Z,10.80
2023-05-18T22:17:41.271Z,10.70
2023-05-18T22:20:09.505Z,10.60
2023-05-18T22:22:36.861Z,10.60
2023-05-18T22:25:03.858Z,10.60
2023-05-18T22:27:31.215Z,10.50
2023-05-18T22:29:58.114Z,10.60
2023-05-18T22:32:25.127Z,10.60
2023-05-18T22:34:52.194Z,10.60
2023-05-18T22:37:19.172Z,10.60
2023-05-18T22:39:46.061Z,10.60
2023-05-18T22:42:13.147Z,10.60
2023-05-18T22:44:40.096Z,10.50
2023-05-18T22:47:08.890Z,10.60
2023-05-18T22:49:36.074Z,10.60
2023-05-18T22:52:04.479Z,10.70
2023-05-18T22:54:31.501Z,10.70
2023-05-18T22:56:59.522Z,10.70
2023-05-18T22:59:28.668Z,10.60
2023-05-18T23:01:55.677Z,10.60
2023-05-18T23:04:22.658Z,10.60
2023-05-18T23:06:50.753Z,10.60
2023-05-18T23:09:18.491Z,10.60
2023-05-18T23:11:46.149Z,10.60
2023-05-18T23:14:14.280Z,10.60
2023-05-18T23:16:43.169Z,10.60
2023-05-18T23:19:12.391Z,10.60
2023-05-18T23:21:40.388Z,10.50
2023-05-18T23:24:12.058Z,10.50
2023-05-18T23:26:42.837Z,10.40
2023-05-18T23:29:10.370Z,10.40
2023-05-18T23:31:37.662Z,10.30
2023-05-18T23:34:05.465Z,10.20
2023-05-18T23:36:36.726Z,10.30
2023-05-18T23:39:04.217Z,10.30
2023-05-18T23:41:32.056Z,10.30
2023-05-18T23:43:59.362Z,10.20
2023-05-18T23:46:26.797Z,10.20
2023-05-18T23:48:54.156Z,10.20
2023-05-18T23:51:21.627Z,10.20
2023-05-18T23:53:50.640Z,10.20
2023-05-18T23:56:18.706Z,10.20
2023-05-18T23:58:46.707Z,10.10
